createdAt,value
2023-02-22T00:00:43.245Z,11.77
2023-02-22T00:03:18.068Z,10.70
2023-02-22T00:05:47.519Z,11.65
2023-02-22T00:08:16.823Z,10.60
2023-02-22T00:10:44.999Z,12.57
2023-02-22T00:13:14.913Z,11.55
2023-02-22T00:15:42.031Z,10.23
2023-02-22T00:18:12.245Z,12.23
2023-02-22T00:20:39.738Z,10.45
2023-02-22T00:23:09.722Z,10.27
2023-02-22T00:25:36.960Z,11.73
2023-02-22T00:28:05.586Z,10.95
2023-02-22T00:30:34.040Z,15.18
2023-02-22T00:33:01.761Z,12.13
2023-02-22T00:35:30.771Z,12.48
2023-02-22T00:38:00.787Z,11.02
2023-02-22T00:40:31.232Z,11.68
2023-02-22T00:43:00.183Z,11.82
2023-02-22T00:45:29.105Z,11.65
2023-02-22T00:47:56.998Z,9.27
2023-02-22T00:50:27.384Z,12.77
2023-02-22T00:52:55.341Z,13.68
2023-02-22T00:55:32.926Z,12.50
2023-02-22T00:58:02.280Z,13.23
2023-02-22T01:00:34.042Z,11.27
2023-02-22T01:03:01.329Z,13.57
2023-02-22T01:05:30.299Z,11.13
2023-02-22T01:07:59.060Z,11.27
2023-02-22T01:10:28.970Z,12.63
2023-02-22T01:12:57.393Z,12.82
2023-02-22T01:15:29.430Z,10.68
2023-02-22T01:17:58.619Z,12.90
2023-02-22T01:20:27.651Z,11.90
2023-02-22T01:22:57.230Z,12.52
2023-02-22T01:25:28.720Z,11.25
2023-02-22T01:27:56.882Z,9.80
2023-02-22T01:30:27.953Z,11.25
2023-02-22T01:32:55.354Z,12.52
2023-02-22T01:35:26.132Z,12.05
2023-02-22T01:37:53.313Z,11.93
2023-02-22T01:40:27.697Z,14.15
2023-02-22T01:42:59.408Z,10.85
2023-02-22T01:45:35.147Z,13.70
2023-02-22T01:48:15.394Z,12.63
2023-02-22T01:50:54.434Z,11.52
2023-02-22T01:53:30.694Z,11.75
2023-02-22T01:55:59.484Z,12.07
2023-02-22T01:58:30.688Z,10.50
2023-02-22T02:00:58.037Z,11.48
2023-02-22T02:03:34.582Z,13.45
2023-02-22T02:06:05.466Z,9.27
2023-02-22T02:08:52.096Z,9.40
2023-02-22T02:11:25.039Z,8.40
2023-02-22T02:13:55.445Z,9.55
2023-02-22T02:16:26.018Z,10.75
2023-02-22T02:18:54.586Z,8.73
2023-02-22T02:21:50.002Z,7.65
2023-02-22T02:24:52.667Z,11.07
2023-02-22T02:27:27.614Z,8.40
2023-02-22T02:30:23.001Z,6.43
2023-02-22T02:32:58.946Z,8.65
2023-02-22T02:35:49.457Z,7.75
2023-02-22T02:38:50.714Z,7.72
2023-02-22T02:44:06.550Z,7.40
2023-02-22T02:46:35.788Z,7.50
2023-02-22T02:49:09.277Z,8.38
2023-02-22T02:51:44.612Z,6.13
2023-02-22T02:54:13.769Z,7.47
2023-02-22T02:56:43.058Z,8.20
2023-02-22T02:59:31.742Z,8.02
2023-02-22T03:02:13.500Z,9.80
2023-02-22T03:05:10.549Z,8.45
2023-02-22T03:08:03.011Z,6.82
2023-02-22T03:11:07.428Z,6.40
2023-02-22T03:13:50.177Z,9.57
2023-02-22T03:16:24.801Z,10.70
2023-02-22T03:19:21.031Z,8.70
2023-02-22T03:22:17.799Z,9.25
2023-02-22T03:24:53.589Z,9.02
2023-02-22T03:27:43.988Z,8.57
2023-02-22T03:30:33.127Z,6.85
2023-02-22T03:33:09.319Z,7.45
2023-02-22T03:35:51.345Z,6.28
2023-02-22T03:38:21.023Z,8.27
2023-02-22T03:40:54.983Z,5.97
2023-02-22T03:43:30.531Z,8.43
2023-02-22T03:46:06.131Z,7.38
2023-02-22T03:48:47.329Z,5.80
2023-02-22T03:51:17.346Z,7.10
2023-02-22T03:53:48.955Z,6.65
2023-02-22T03:56:24.390Z,6.15
2023-02-22T03:58:52.370Z,9.57
2023-02-22T04:01:20.252Z,8.70
2023-02-22T04:03:47.530Z,7.72
2023-02-22T04:06:16.271Z,7.53
2023-02-22T04:08:44.689Z,8.20
2023-02-22T04:11:11.931Z,6.47
2023-02-22T04:13:40.742Z,5.95
2023-02-22T04:16:08.079Z,6.32
2023-02-22T04:18:36.400Z,6.43
2023-02-22T04:21:04.759Z,4.90
2023-02-22T04:23:37.022Z,6.47
2023-02-22T04:26:05.017Z,6.55
2023-02-22T04:28:32.702Z,5.90
2023-02-22T04:31:25.885Z,5.72
2023-02-22T04:33:55.502Z,7.20
2023-02-22T04:36:27.930Z,6.50
2023-02-22T04:38:55.443Z,9.23
2023-02-22T04:41:25.043Z,8.60
2023-02-22T04:43:52.618Z,8.07
2023-02-22T04:46:24.332Z,6.65
2023-02-22T04:48:53.470Z,6.90
2023-02-22T04:51:24.513Z,7.78
2023-02-22T04:54:03.661Z,8.60
2023-02-22T04:56:33.383Z,9.52
2023-02-22T04:59:00.740Z,6.20
2023-02-22T05:01:33.848Z,7.43
2023-02-22T05:04:06.864Z,7.10
2023-02-22T05:06:34.327Z,7.25
2023-02-22T05:09:01.470Z,6.85
2023-02-22T05:11:29.282Z,9.57
2023-02-22T05:13:56.560Z,6.15
2023-02-22T05:16:24.048Z,6.30
2023-02-22T05:18:51.219Z,4.80
2023-02-22T05:21:18.642Z,6.10
2023-02-22T05:23:45.865Z,6.90
2023-02-22T05:26:13.087Z,8.73
2023-02-22T05:28:40.439Z,7.22
2023-02-22T05:31:08.967Z,11.57
2023-02-22T05:33:36.503Z,9.05
2023-02-22T05:36:03.598Z,8.38
2023-02-22T05:38:30.658Z,7.47
2023-02-22T05:40:57.865Z,10.88
2023-02-22T05:43:25.034Z,8.02
2023-02-22T05:45:52.270Z,9.70
2023-02-22T05:48:21.730Z,8.98
2023-02-22T05:50:50.224Z,9.55
2023-02-22T05:53:17.455Z,10.55
2023-02-22T05:55:46.453Z,11.95
2023-02-22T05:58:13.877Z,10.85
2023-02-22T06:00:41.375Z,12.88
2023-02-22T06:03:10.719Z,9.38
2023-02-22T06:05:40.155Z,10.65
2023-02-22T06:08:08.801Z,12.32
2023-02-22T06:10:36.211Z,8.82
2023-02-22T06:13:06.021Z,11.68
2023-02-22T06:15:33.269Z,8.52
2023-02-22T06:18:01.471Z,7.68
2023-02-22T06:20:30.453Z,11.63
2023-02-22T06:22:59.333Z,7.95
2023-02-22T06:25:31.634Z,10.25
2023-02-22T06:30:28.097Z,7.60
2023-02-22T06:32:55.254Z,7.20
2023-02-22T06:35:22.999Z,8.05
2023-02-22T06:37:50.256Z,9.68
2023-02-22T06:40:17.444Z,6.38
2023-02-22T06:42:47.582Z,7.10
2023-02-22T06:45:16.944Z,7.30
2023-02-22T06:47:44.017Z,8.05
2023-02-22T06:50:22.862Z,9.55
2023-02-22T06:52:50.119Z,8.00
2023-02-22T06:55:24.222Z,8.35
2023-02-22T06:57:52.119Z,7.60
2023-02-22T07:00:22.212Z,6.07
2023-02-22T07:02:49.665Z,9.30
2023-02-22T07:05:20.008Z,7.07
2023-02-22T07:07:49.178Z,5.80
2023-02-22T07:10:26.339Z,4.97
2023-02-22T07:12:53.895Z,7.03
2023-02-22T07:15:25.262Z,7.45
2023-02-22T07:17:52.968Z,6.65
2023-02-22T07:20:21.276Z,8.55
2023-02-22T07:22:49.632Z,9.10
2023-02-22T07:25:16.962Z,7.25
2023-02-22T07:27:44.152Z,8.93
2023-02-22T07:30:26.614Z,7.20
2023-02-22T07:32:55.670Z,9.80
2023-02-22T07:35:32.157Z,7.47
2023-02-22T07:37:59.899Z,7.60
2023-02-22T07:40:27.636Z,7.72
2023-02-22T07:43:00.609Z,9.38
2023-02-22T07:45:31.251Z,10.68
2023-02-22T07:47:59.812Z,9.93
2023-02-22T07:50:31.420Z,9.05
2023-02-22T07:53:01.766Z,9.75
2023-02-22T07:55:31.171Z,7.75
2023-02-22T07:58:01.374Z,7.10
2023-02-22T08:00:32.087Z,10.25
2023-02-22T08:03:04.555Z,6.07
2023-02-22T08:05:33.043Z,9.50
2023-02-22T08:08:00.303Z,8.63
2023-02-22T08:10:28.187Z,5.72
2023-02-22T08:12:56.164Z,7.45
2023-02-22T08:15:28.885Z,6.43
2023-02-22T08:20:23.834Z,6.22
2023-02-22T08:22:51.861Z,7.00
2023-02-22T08:25:22.884Z,6.00
2023-02-22T08:27:50.231Z,8.38
2023-02-22T08:30:21.082Z,8.63
2023-02-22T08:32:49.028Z,6.57
2023-02-22T08:35:19.187Z,7.50
2023-02-22T08:37:52.860Z,5.45
2023-02-22T08:40:23.405Z,7.80
2023-02-22T08:42:50.853Z,4.95
2023-02-22T08:45:18.568Z,6.68
2023-02-22T08:47:46.100Z,5.95
2023-02-22T08:50:28.232Z,7.13
2023-02-22T08:52:59.775Z,5.25
2023-02-22T08:55:30.779Z,5.95
2023-02-22T08:57:58.390Z,6.03
2023-02-22T09:00:25.610Z,5.70
2023-02-22T09:02:53.499Z,6.43
2023-02-22T09:05:21.327Z,5.65
2023-02-22T09:07:48.505Z,7.38
2023-02-22T09:10:19.241Z,4.80
2023-02-22T09:12:46.574Z,4.35
2023-02-22T09:15:15.678Z,4.82
2023-02-22T09:17:42.815Z,6.90
2023-02-22T09:20:12.127Z,5.53
2023-02-22T09:22:40.477Z,5.50
2023-02-22T09:25:16.670Z,4.63
2023-02-22T09:27:45.295Z,6.18
2023-02-22T09:30:38.629Z,5.38
2023-02-22T09:33:17.297Z,6.38
2023-02-22T09:35:50.316Z,6.10
2023-02-22T09:38:23.023Z,6.72
2023-02-22T09:40:58.176Z,5.43
2023-02-22T09:43:40.762Z,4.85
2023-02-22T09:46:23.457Z,5.50
2023-02-22T09:49:02.307Z,5.22
2023-02-22T09:51:41.751Z,4.88
2023-02-22T09:54:23.206Z,5.25
2023-02-22T09:56:55.373Z,5.28
2023-02-22T09:59:30.219Z,5.15
2023-02-22T10:02:14.656Z,6.68
2023-02-22T10:04:49.814Z,4.78
2023-02-22T10:07:26.315Z,6.80
2023-02-22T10:09:56.839Z,5.18
2023-02-22T10:12:38.571Z,5.13
2023-02-22T10:15:30.048Z,5.50
2023-02-22T10:17:59.905Z,4.55
2023-02-22T10:20:29.141Z,5.30
2023-02-22T10:23:05.173Z,6.15
2023-02-22T10:25:38.151Z,6.07
2023-02-22T10:28:24.606Z,5.88
2023-02-22T10:31:04.711Z,9.38
2023-02-22T10:33:42.839Z,5.05
2023-02-22T10:36:19.679Z,5.05
2023-02-22T10:39:25.332Z,8.00
2023-02-22T10:41:56.477Z,6.43
2023-02-22T10:44:24.183Z,4.25
2023-02-22T10:46:53.656Z,3.90
2023-02-22T10:49:25.123Z,5.20
2023-02-22T10:52:01.405Z,5.18
2023-02-22T10:54:41.142Z,5.05
2023-02-22T10:57:08.846Z,4.43
2023-02-22T10:59:39.480Z,4.78
2023-02-22T11:02:20.616Z,3.90
2023-02-22T11:04:53.923Z,3.70
2023-02-22T11:07:24.204Z,5.47
2023-02-22T11:09:57.463Z,5.72
2023-02-22T11:12:29.687Z,4.00
2023-02-22T11:14:57.262Z,3.72
2023-02-22T11:17:34.252Z,5.47
2023-02-22T11:20:01.461Z,6.97
2023-02-22T11:22:42.725Z,3.92
2023-02-22T11:25:22.185Z,4.15
2023-02-22T11:27:49.532Z,6.30
2023-02-22T11:30:22.240Z,6.57
2023-02-22T11:33:24.807Z,3.72
2023-02-22T11:36:02.854Z,4.57
2023-02-22T11:38:37.387Z,4.80
2023-02-22T11:41:08.311Z,3.60
2023-02-22T11:43:35.916Z,3.53
2023-02-22T11:46:23.659Z,4.78
2023-02-22T11:48:58.531Z,3.55
2023-02-22T11:51:49.920Z,4.70
2023-02-22T11:54:34.933Z,3.45
2023-02-22T11:57:28.107Z,4.32
2023-02-22T12:00:15.948Z,3.92
2023-02-22T12:03:08.655Z,4.30
2023-02-22T12:05:38.608Z,4.13
2023-02-22T12:08:23.648Z,5.63
2023-02-22T12:11:22.930Z,4.82
2023-02-22T12:14:16.179Z,5.60
2023-02-22T12:17:09.679Z,3.53
2023-02-22T12:19:44.638Z,4.25
2023-02-22T12:22:37.103Z,2.80
2023-02-22T12:25:19.716Z,4.65
2023-02-22T12:27:52.599Z,4.05
2023-02-22T12:30:26.633Z,3.65
2023-02-22T12:32:59.290Z,4.78
2023-02-22T12:35:35.060Z,3.17
2023-02-22T12:38:17.342Z,3.72
2023-02-22T12:41:27.248Z,5.18
2023-02-22T12:44:04.219Z,2.90
2023-02-22T12:46:36.072Z,2.75
2023-02-22T12:49:18.513Z,3.10
2023-02-22T12:51:56.278Z,3.58
2023-02-22T12:54:46.157Z,3.10
2023-02-22T12:57:25.490Z,3.33
2023-02-22T12:59:59.423Z,3.20
2023-02-22T13:02:41.198Z,3.80
2023-02-22T13:05:15.663Z,5.15
2023-02-22T13:08:24.940Z,3.58
2023-02-22T13:10:51.936Z,5.15
2023-02-22T13:13:36.046Z,5.55
2023-02-22T13:16:30.804Z,3.70
2023-02-22T13:19:08.278Z,3.72
2023-02-22T13:21:55.240Z,5.32
2023-02-22T13:24:39.624Z,5.47
2023-02-22T13:27:18.519Z,4.70
2023-02-22T13:29:52.428Z,3.03
2023-02-22T13:32:52.507Z,4.00
2023-02-22T13:35:47.614Z,3.50
2023-02-22T13:38:39.615Z,3.22
2023-02-22T13:41:41.742Z,5.03
2023-02-22T13:44:31.918Z,4.55
2023-02-22T13:47:23.630Z,4.25
2023-02-22T13:50:18.374Z,2.47
2023-02-22T13:52:48.157Z,1.58
2023-02-22T13:55:23.580Z,2.78
2023-02-22T13:57:59.433Z,1.90
2023-02-22T14:00:44.592Z,1.55
2023-02-22T14:03:14.666Z,3.33
2023-02-22T14:05:51.122Z,2.88
2023-02-22T14:08:28.174Z,2.00
2023-02-22T14:10:57.326Z,2.50
2023-02-22T14:13:29.484Z,3.20
2023-02-22T14:16:05.502Z,3.45
2023-02-22T14:18:44.689Z,2.38
2023-02-22T14:21:17.453Z,2.40
2023-02-22T14:23:53.282Z,3.25
2023-02-22T14:26:20.485Z,2.97
2023-02-22T14:29:06.066Z,2.40
2023-02-22T14:31:45.135Z,3.53
2023-02-22T14:34:39.162Z,4.25
2023-02-22T14:37:12.773Z,3.47
2023-02-22T14:39:53.981Z,3.72
2023-02-22T14:42:32.407Z,3.42
2023-02-22T14:45:12.617Z,3.20
2023-02-22T14:48:18.868Z,4.95
2023-02-22T14:50:53.887Z,3.58
2023-02-22T14:53:59.099Z,3.05
2023-02-22T14:56:36.439Z,2.60
2023-02-22T14:59:35.789Z,3.67
2023-02-22T15:02:23.034Z,4.28
2023-02-22T15:04:56.769Z,4.43
2023-02-22T15:07:29.493Z,5.15
2023-02-22T15:12:34.367Z,4.85
2023-02-22T15:15:22.193Z,5.40
2023-02-22T15:17:54.854Z,5.93
2023-02-22T15:22:58.389Z,4.65
2023-02-22T15:25:28.584Z,4.88
2023-02-22T15:28:02.232Z,4.38
2023-02-22T15:30:33.174Z,4.80
2023-02-22T15:33:24.875Z,4.90
2023-02-22T15:35:56.456Z,4.88
2023-02-22T15:38:30.736Z,6.90
2023-02-22T15:41:06.078Z,5.38
2023-02-22T15:43:33.125Z,5.60
2023-02-22T15:46:01.090Z,5.38
2023-02-22T15:48:32.019Z,5.43
2023-02-22T15:51:12.619Z,5.55
2023-02-22T15:53:48.764Z,4.65
2023-02-22T15:56:19.829Z,6.72
2023-02-22T15:58:48.322Z,4.82
2023-02-22T16:01:19.412Z,7.78
2023-02-22T16:03:50.583Z,5.45
2023-02-22T16:06:35.494Z,5.90
2023-02-22T16:09:08.551Z,6.22
2023-02-22T16:11:43.369Z,5.05
2023-02-22T16:14:52.596Z,8.18
2023-02-22T16:17:25.908Z,5.75
2023-02-22T16:19:53.643Z,5.80
2023-02-22T16:22:35.651Z,5.50
2023-02-22T16:25:35.754Z,6.97
2023-02-22T16:28:27.362Z,6.03
2023-02-22T16:30:59.002Z,6.22
2023-02-22T16:33:30.028Z,4.67
2023-02-22T16:35:57.325Z,4.65
2023-02-22T16:38:27.697Z,5.53
2023-02-22T16:40:58.410Z,9.15
2023-02-22T16:43:33.031Z,5.40
2023-02-22T16:46:04.946Z,5.13
2023-02-22T16:48:33.436Z,7.45
2023-02-22T16:51:07.141Z,4.70
2023-02-22T16:53:34.476Z,3.53
2023-02-22T16:56:05.732Z,4.45
2023-02-22T16:58:36.943Z,3.53
2023-02-22T17:01:04.091Z,5.18
2023-02-22T17:03:31.216Z,4.53
2023-02-22T17:05:58.334Z,7.28
2023-02-22T17:08:25.885Z,5.63
2023-02-22T17:10:57.005Z,6.38
2023-02-22T17:13:27.403Z,5.57
2023-02-22T17:15:55.264Z,5.20
2023-02-22T17:18:24.474Z,5.93
2023-02-22T17:20:53.223Z,5.85
2023-02-22T17:23:21.852Z,5.90
2023-02-22T17:25:55.833Z,4.63
2023-02-22T17:28:24.736Z,4.15
2023-02-22T17:30:54.365Z,5.63
2023-02-22T17:33:26.885Z,6.20
2023-02-22T17:35:55.873Z,6.53
2023-02-22T17:38:23.127Z,6.53
2023-02-22T17:40:55.114Z,6.95
2023-02-22T17:43:22.716Z,7.47
2023-02-22T17:45:49.982Z,4.75
2023-02-22T17:48:18.251Z,4.05
2023-02-22T17:50:47.306Z,5.10
2023-02-22T17:53:14.480Z,6.38
2023-02-22T17:55:42.782Z,5.13
2023-02-22T17:58:14.929Z,6.03
2023-02-22T18:00:46.977Z,5.38
2023-02-22T18:03:21.969Z,6.20
2023-02-22T18:05:55.665Z,3.85
2023-02-22T18:08:25.175Z,4.40
2023-02-22T18:10:58.452Z,4.00
2023-02-22T18:13:27.933Z,7.45
2023-02-22T18:16:00.496Z,4.57
2023-02-22T18:21:00.020Z,4.55
2023-02-22T18:23:29.923Z,5.32
2023-02-22T18:26:10.139Z,5.90
2023-02-22T18:28:39.533Z,5.43
2023-02-22T18:31:09.189Z,3.95
2023-02-22T18:33:36.587Z,5.90
2023-02-22T18:36:04.833Z,6.25
2023-02-22T18:38:32.115Z,4.88
2023-02-22T18:41:02.057Z,5.15
2023-02-22T18:43:29.837Z,6.20
2023-02-22T18:46:08.888Z,6.32
2023-02-22T18:48:36.868Z,4.75
2023-02-22T18:51:06.304Z,5.68
2023-02-22T18:53:33.686Z,4.97
2023-02-22T18:56:05.907Z,5.65
2023-02-22T18:58:33.483Z,4.50
2023-02-22T19:01:05.165Z,6.05
2023-02-22T19:03:33.219Z,5.07
2023-02-22T19:06:09.050Z,6.68
2023-02-22T19:08:39.792Z,9.93
2023-02-22T19:11:13.179Z,10.40
2023-02-22T19:13:40.223Z,7.03
2023-02-22T19:16:07.934Z,9.00
2023-02-22T19:18:35.109Z,8.65
2023-02-22T19:21:04.861Z,5.80
2023-02-22T19:23:34.540Z,10.18
2023-02-22T19:26:03.836Z,7.13
2023-02-22T19:28:36.994Z,11.90
2023-02-22T19:31:18.375Z,16.83
2023-02-22T19:33:47.786Z,13.98
2023-02-22T19:36:16.189Z,21.23
2023-02-22T19:38:44.054Z,20.92
2023-02-22T19:41:15.882Z,27.23
2023-02-22T19:43:47.424Z,32.90
2023-02-22T19:46:14.797Z,41.72
2023-02-22T19:48:41.847Z,48.00
2023-02-22T19:51:12.346Z,40.30
2023-02-22T19:53:41.143Z,34.40
2023-02-22T19:56:19.875Z,29.35
2023-02-22T19:58:50.139Z,31.33
2023-02-22T20:01:23.430Z,22.63
2023-02-22T20:03:55.348Z,21.17
2023-02-22T20:06:28.577Z,25.23
2023-02-22T20:08:56.898Z,19.20
2023-02-22T20:11:25.621Z,26.17
2023-02-22T20:13:55.929Z,20.90
2023-02-22T20:16:23.898Z,18.00
2023-02-22T20:18:51.847Z,13.45
2023-02-22T20:21:31.456Z,14.60
2023-02-22T20:24:04.675Z,16.73
2023-02-22T20:26:33.625Z,12.07
2023-02-22T20:29:01.259Z,13.05
2023-02-22T20:31:29.926Z,16.48
2023-02-22T20:34:00.155Z,14.60
2023-02-22T20:36:29.402Z,14.02
2023-02-22T20:39:00.191Z,16.35
2023-02-22T20:41:30.204Z,14.13
2023-02-22T20:43:58.494Z,15.10
2023-02-22T20:46:27.394Z,17.40
2023-02-22T20:48:56.754Z,17.77
2023-02-22T20:51:24.459Z,17.63
2023-02-22T20:53:51.636Z,18.33
2023-02-22T20:56:21.810Z,17.00
2023-02-22T20:58:49.687Z,17.25
2023-02-22T21:01:19.714Z,16.88
2023-02-22T21:03:47.196Z,14.23
2023-02-22T21:06:16.939Z,15.40
2023-02-22T21:08:49.376Z,21.58
2023-02-22T21:11:18.764Z,20.80
2023-02-22T21:13:46.463Z,21.40
2023-02-22T21:16:19.024Z,15.80
2023-02-22T21:18:46.209Z,17.95
2023-02-22T21:21:13.721Z,16.27
2023-02-22T21:23:41.523Z,14.90
2023-02-22T21:26:16.222Z,12.10
2023-02-22T21:28:51.411Z,17.10
2023-02-22T21:31:24.267Z,19.33
2023-02-22T21:33:54.672Z,16.10
2023-02-22T21:36:25.720Z,18.67
2023-02-22T21:39:01.355Z,13.55
2023-02-22T21:41:31.330Z,16.88
2023-02-22T21:43:59.847Z,12.38
2023-02-22T21:46:32.181Z,12.35
2023-02-22T21:48:59.305Z,13.27
2023-02-22T21:51:34.306Z,15.98
2023-02-22T21:54:03.520Z,12.75
2023-02-22T21:56:32.624Z,22.40
2023-02-22T21:59:06.143Z,16.20
2023-02-22T22:01:36.546Z,17.75
2023-02-22T22:04:05.268Z,14.05
2023-02-22T22:06:34.823Z,18.25
2023-02-22T22:09:05.292Z,16.63
2023-02-22T22:11:32.789Z,14.13
2023-02-22T22:14:00.679Z,12.73
2023-02-22T22:16:30.218Z,16.38
2023-02-22T22:18:58.135Z,18.08
2023-02-22T22:21:25.669Z,18.50
2023-02-22T22:23:57.537Z,18.05
2023-02-22T22:26:25.982Z,16.48
2023-02-22T22:28:59.286Z,16.02
2023-02-22T22:31:28.564Z,16.05
2023-02-22T22:33:56.580Z,15.75
2023-02-22T22:36:25.294Z,12.15
2023-02-22T22:38:53.108Z,14.30
2023-02-22T22:41:22.186Z,12.98
2023-02-22T22:43:49.505Z,14.68
2023-02-22T22:46:18.848Z,14.73
2023-02-22T22:48:47.460Z,14.25
2023-02-22T22:51:20.287Z,13.63
2023-02-22T22:53:49.408Z,17.80
2023-02-22T22:56:20.416Z,18.75
2023-02-22T22:58:53.847Z,10.43
2023-02-22T23:01:27.405Z,12.38
2023-02-22T23:04:00.517Z,15.00
2023-02-22T23:06:33.323Z,13.20
2023-02-22T23:09:11.825Z,12.75
2023-02-22T23:11:45.248Z,14.68
2023-02-22T23:14:15.228Z,14.65
2023-02-22T23:16:43.100Z,15.40
2023-02-22T23:19:10.504Z,15.85
2023-02-22T23:21:39.270Z,17.98
2023-02-22T23:24:07.037Z,18.52
2023-02-22T23:26:34.688Z,12.23
2023-02-22T23:29:02.656Z,16.73
2023-02-22T23:31:30.117Z,16.63
2023-02-22T23:33:59.647Z,17.55
2023-02-22T23:36:27.219Z,16.45
2023-02-22T23:38:54.438Z,19.80
2023-02-22T23:41:25.342Z,19.38
2023-02-22T23:43:52.516Z,18.13
2023-02-22T23:46:19.741Z,17.38
2023-02-22T23:48:54.853Z,15.43
2023-02-22T23:51:26.786Z,17.48
2023-02-22T23:53:57.606Z,18.20
2023-02-22T23:56:27.829Z,17.67
2023-02-22T23:58:57.714Z,19.05
